Time;durP1;ratioP1;P1;durP2;ratioP2;P2;SDS_P1;SDS_P2;PMS_P1;PMS_P2;Temp;Humidity;BMP_temperature;BMP_pressure;BME280_temperature;BME280_humidity;BME280_pressure;Samples;Min_cycle;Max_cycle;Signal;HPM_P1;HPM_P2
2021/10/09 00:02:15;;;;;;;7.45;4.65;;;11.40;76.30;;;;;;5083047;28;20024;-81
2021/10/09 00:04:42;;;;;;;7.97;5.05;;;11.40;76.30;;;;;;5081278;28;20025;-79
2021/10/09 00:07:08;;;;;;;6.78;4.80;;;11.30;76.30;;;;;;5085378;28;20028;-84
2021/10/09 00:09:34;;;;;;;8.02;4.90;;;11.30;76.10;;;;;;5080970;28;20529;-82
2021/10/09 00:12:00;;;;;;;10.55;4.70;;;11.30;76.20;;;;;;5087114;28;20052;-76
2021/10/09 00:14:26;;;;;;;8.45;4.70;;;11.20;76.10;;;;;;5080746;28;20024;-78
2021/10/09 00:16:52;;;;;;;10.10;4.97;;;11.20;76.20;;;;;;5093133;28;20498;-79
2021/10/09 00:19:18;;;;;;;11.60;5.72;;;11.20;76.30;;;;;;5092177;28;20024;-77
2021/10/09 00:21:44;;;;;;;8.48;5.55;;;11.20;76.30;;;;;;5091746;28;20024;-75
2021/10/09 00:24:15;;;;;;;8.95;5.47;;;11.20;76.30;;;;;;5083442;28;20028;-78
2021/10/09 00:26:41;;;;;;;11.50;7.25;;;11.10;76.40;;;;;;5079101;28;20494;-79
2021/10/09 00:29:08;;;;;;;13.70;6.75;;;11.10;76.40;;;;;;5078182;28;20107;-80
2021/10/09 00:31:37;;;;;;;10.90;6.10;;;11.10;76.20;;;;;;5080372;28;20028;-84
2021/10/09 00:34:06;;;;;;;11.45;5.82;;;11.00;76.60;;;;;;5095194;28;20039;-78
2021/10/09 00:36:33;;;;;;;10.48;5.75;;;11.00;76.40;;;;;;5078765;28;20048;-80
2021/10/09 00:38:59;;;;;;;9.85;5.13;;;11.00;76.60;;;;;;5087999;28;20036;-76
2021/10/09 00:41:32;;;;;;;8.98;4.80;;;11.00;76.60;;;;;;5082506;28;20034;-81
2021/10/09 00:44:09;;;;;;;9.85;5.63;;;10.90;76.60;;;;;;5085150;28;20059;-77
2021/10/09 00:46:39;;;;;;;9.00;5.57;;;10.90;76.70;;;;;;5085087;28;20086;-84
2021/10/09 00:49:05;;;;;;;9.18;5.70;;;10.90;76.60;;;;;;5084664;28;20506;-80
2021/10/09 00:51:31;;;;;;;9.57;4.55;;;10.80;76.60;;;;;;5080519;28;20025;-84
2021/10/09 00:54:00;;;;;;;9.63;5.80;;;10.80;76.60;;;;;;5086803;28;20104;-79
2021/10/09 00:56:33;;;;;;;9.82;5.75;;;10.80;76.70;;;;;;5084915;28;20016;-85
2021/10/09 00:59:00;;;;;;;8.38;4.55;;;10.70;76.70;;;;;;5089371;28;20031;-85
2021/10/09 01:01:27;;;;;;;8.68;5.20;;;10.70;76.60;;;;;;5083553;28;20067;-86
2021/10/09 01:03:54;;;;;;;7.82;5.03;;;10.70;76.80;;;;;;5086052;28;20028;-85
2021/10/09 01:06:20;;;;;;;8.05;4.82;;;10.70;76.90;;;;;;5085191;28;20157;-80
2021/10/09 01:08:45;;;;;;;8.32;4.72;;;10.70;76.80;;;;;;5091173;28;20055;-89
2021/10/09 01:11:12;;;;;;;10.75;4.75;;;10.60;76.80;;;;;;5086909;28;20051;-90
2021/10/09 01:13:37;;;;;;;8.13;4.70;;;10.60;76.80;;;;;;5088217;28;20021;-89
2021/10/09 01:16:16;;;;;;;8.70;4.80;;;10.60;76.90;;;;;;5090882;28;20033;-90
2021/10/09 01:18:42;;;;;;;8.75;4.93;;;10.60;76.80;;;;;;5084880;28;20118;-79
2021/10/09 01:21:08;;;;;;;9.85;5.65;;;10.50;76.90;;;;;;5084762;28;20048;-78
2021/10/09 01:23:35;;;;;;;9.57;5.43;;;10.50;76.80;;;;;;5078108;28;20015;-78
2021/10/09 01:26:01;;;;;;;9.93;5.90;;;10.50;76.90;;;;;;5078463;28;20047;-78
2021/10/09 01:28:28;;;;;;;9.18;5.47;;;10.40;76.80;;;;;;5080219;28;20055;-79
2021/10/09 01:30:55;;;;;;;8.98;5.07;;;10.40;76.80;;;;;;5088585;28;20020;-78
2021/10/09 01:33:21;;;;;;;8.93;4.95;;;10.40;76.90;;;;;;5087398;28;20023;-78
2021/10/09 01:35:50;;;;;;;11.32;5.10;;;10.30;76.70;;;;;;5092162;28;20123;-78
2021/10/09 01:38:19;;;;;;;9.30;4.97;;;10.40;76.90;;;;;;5089646;28;20032;-78
2021/10/09 01:40:46;;;;;;;6.90;4.18;;;10.30;76.90;;;;;;5095037;28;20049;-78
2021/10/09 01:43:14;;;;;;;7.03;4.20;;;10.30;77.00;;;;;;5087373;28;20020;-78
2021/10/09 01:45:44;;;;;;;6.68;3.80;;;10.20;77.00;;;;;;5083263;28;20028;-78
2021/10/09 01:48:10;;;;;;;9.15;4.05;;;10.20;77.00;;;;;;5082911;28;20387;-79
2021/10/09 01:50:37;;;;;;;7.75;3.90;;;10.20;77.10;;;;;;5075980;28;20025;-78
2021/10/09 01:53:05;;;;;;;6.25;3.60;;;10.10;77.00;;;;;;5086965;28;20032;-78
2021/10/09 01:55:31;;;;;;;6.95;3.38;;;10.10;77.00;;;;;;5082150;28;20012;-78
2021/10/09 01:57:58;;;;;;;7.90;4.07;;;10.10;77.10;;;;;;5096328;28;20041;-78
2021/10/09 02:00:24;;;;;;;7.80;3.80;;;10.10;77.00;;;;;;5083625;28;20035;-78
2021/10/09 02:02:50;;;;;;;7.82;4.32;;;10.10;76.90;;;;;;5077094;28;20113;-78
2021/10/09 02:05:17;;;;;;;7.53;3.85;;;10.00;76.90;;;;;;5085815;28;20080;-79
2021/10/09 02:07:46;;;;;;;8.57;4.38;;;10.10;76.80;;;;;;5086193;28;20020;-79
2021/10/09 02:10:14;;;;;;;7.53;4.65;;;10.00;77.20;;;;;;5085771;28;20029;-80
2021/10/09 02:12:40;;;;;;;8.45;4.35;;;10.00;77.00;;;;;;5080895;28;20029;-79
2021/10/09 02:15:21;;;;;;;8.48;4.90;;;10.00;76.70;;;;;;5077666;28;20111;-78
2021/10/09 02:25:46;;;;;;;7.93;4.63;;;9.90;77.20;;;;;;5083214;28;20089;-78
2021/10/09 02:28:20;;;;;;;8.65;4.15;;;9.90;77.40;;;;;;5084380;28;20036;-78
2021/10/09 02:30:46;;;;;;;7.70;4.18;;;9.90;77.30;;;;;;5087837;28;20024;-78
2021/10/09 02:33:12;;;;;;;8.23;4.40;;;9.80;77.30;;;;;;5076936;28;20098;-78
2021/10/09 02:35:39;;;;;;;7.40;4.38;;;9.80;77.20;;;;;;5083714;28;20044;-78
2021/10/09 02:38:07;;;;;;;7.82;5.18;;;9.80;77.30;;;;;;5076567;28;20486;-78
2021/10/09 02:40:34;;;;;;;8.55;4.95;;;9.80;77.50;;;;;;5081138;28;20020;-78
2021/10/09 02:43:01;;;;;;;10.02;5.00;;;9.80;77.40;;;;;;5080421;28;20052;-78
2021/10/09 02:45:26;;;;;;;8.07;4.38;;;9.70;77.40;;;;;;5078875;28;20028;-78
2021/10/09 02:47:55;;;;;;;6.68;4.35;;;9.70;77.50;;;;;;5090562;28;20020;-78
2021/10/09 02:50:21;;;;;;;8.82;4.80;;;9.70;77.20;;;;;;5080320;28;20059;-78
2021/10/09 02:52:47;;;;;;;8.90;4.68;;;9.70;77.10;;;;;;5084696;28;20499;-79
2021/10/09 02:55:17;;;;;;;11.25;4.57;;;9.70;77.20;;;;;;5077881;28;20126;-78
2021/10/09 02:57:43;;;;;;;8.25;4.82;;;9.70;76.70;;;;;;5079463;28;20055;-78
2021/10/09 03:00:09;;;;;;;8.13;4.80;;;9.60;76.80;;;;;;5076404;28;20025;-79
2021/10/09 03:02:35;;;;;;;10.07;4.90;;;9.70;76.90;;;;;;5076339;28;20029;-79
2021/10/09 03:05:04;;;;;;;10.13;6.10;;;9.60;77.60;;;;;;5086853;28;20024;-78
2021/10/09 03:07:30;;;;;;;9.48;5.97;;;9.60;78.60;;;;;;5084586;28;20036;-78
2021/10/09 03:09:55;;;;;;;7.80;5.05;;;9.60;79.00;;;;;;5088462;28;20107;-78
2021/10/09 03:12:21;;;;;;;9.63;5.32;;;9.60;79.00;;;;;;5089897;28;20056;-78
2021/10/09 03:14:47;;;;;;;9.48;4.97;;;9.60;79.20;;;;;;5079984;28;20458;-78
2021/10/09 03:17:13;;;;;;;9.15;5.05;;;9.60;78.70;;;;;;5089994;28;20090;-78
2021/10/09 03:19:39;;;;;;;10.85;5.55;;;9.60;78.20;;;;;;5083400;28;20016;-78
2021/10/09 03:22:06;;;;;;;11.18;5.70;;;9.60;78.80;;;;;;5081337;28;20108;-78
2021/10/09 03:24:32;;;;;;;10.48;6.10;;;9.60;79.80;;;;;;5078286;28;20044;-78
2021/10/09 03:26:58;;;;;;;8.48;5.28;;;9.60;79.80;;;;;;5091525;28;20089;-78
2021/10/09 03:29:24;;;;;;;10.40;5.80;;;9.60;79.60;;;;;;5080556;28;20099;-78
2021/10/09 03:31:49;;;;;;;9.63;5.75;;;9.60;78.90;;;;;;5079739;28;20031;-78
2021/10/09 03:34:15;;;;;;;8.00;5.57;;;9.60;79.20;;;;;;5091504;28;20032;-78
2021/10/09 03:36:41;;;;;;;9.80;5.78;;;9.50;78.80;;;;;;5084192;28;20048;-78
2021/10/09 03:39:10;;;;;;;9.10;5.28;;;9.50;78.70;;;;;;5079205;28;20364;-78
2021/10/09 03:41:39;;;;;;;8.57;5.55;;;9.40;78.20;;;;;;5079186;28;20028;-78
2021/10/09 03:44:05;;;;;;;10.15;5.93;;;9.50;78.40;;;;;;5079288;28;20021;-78
2021/10/09 03:46:38;;;;;;;9.80;5.13;;;9.40;78.30;;;;;;5092549;28;20028;-78
2021/10/09 03:49:18;;;;;;;7.72;5.13;;;9.40;78.20;;;;;;5091038;28;20021;-79
2021/10/09 03:54:28;;;;;;;9.13;5.13;;;9.40;78.20;;;;;;5080251;28;20063;-78
2021/10/09 03:56:53;;;;;;;8.50;5.50;;;9.30;78.20;;;;;;5088014;28;20028;-78
2021/10/09 03:59:19;;;;;;;8.85;5.53;;;9.30;78.40;;;;;;5084354;28;20053;-78
2021/10/09 04:01:45;;;;;;;9.75;6.30;;;9.30;79.40;;;;;;5079511;28;20024;-78
2021/10/09 04:04:11;;;;;;;11.05;6.40;;;9.30;79.20;;;;;;5087014;28;20020;-78
2021/10/09 04:06:37;;;;;;;11.23;6.50;;;9.30;80.20;;;;;;5089409;28;20025;-77
2021/10/09 04:09:03;;;;;;;11.57;6.88;;;9.30;79.90;;;;;;5078568;28;20112;-78
2021/10/09 04:11:28;;;;;;;11.27;7.45;;;9.30;80.70;;;;;;5077350;28;20032;-78
2021/10/09 04:13:54;;;;;;;12.57;6.35;;;9.30;80.30;;;;;;5079756;28;20032;-77
2021/10/09 04:16:20;;;;;;;11.57;7.22;;;9.30;81.30;;;;;;5089843;28;20032;-78
2021/10/09 04:18:46;;;;;;;10.93;6.82;;;9.30;82.10;;;;;;5098446;28;20027;-78
2021/10/09 04:21:12;;;;;;;13.15;8.32;;;9.30;82.50;;;;;;5079182;28;20104;-78
2021/10/09 04:23:38;;;;;;;13.75;7.95;;;9.30;83.90;;;;;;5079025;28;20491;-78
2021/10/09 04:26:05;;;;;;;10.70;7.13;;;9.30;84.20;;;;;;5081701;28;20056;-78
2021/10/09 04:28:31;;;;;;;10.95;7.15;;;9.20;83.30;;;;;;5083549;28;20099;-78
2021/10/09 04:30:56;;;;;;;15.90;6.57;;;9.20;81.70;;;;;;5083893;28;20126;-76
2021/10/09 04:33:22;;;;;;;11.93;7.32;;;9.20;81.20;;;;;;5084379;28;20483;-78
2021/10/09 04:35:48;;;;;;;10.50;6.13;;;9.10;81.30;;;;;;5084704;28;20442;-78
2021/10/09 04:38:14;;;;;;;10.20;6.88;;;9.10;80.40;;;;;;5077929;28;20020;-78
2021/10/09 04:40:40;;;;;;;9.80;6.68;;;9.10;79.90;;;;;;5079802;28;20035;-78
2021/10/09 04:43:06;;;;;;;10.50;6.30;;;9.10;79.40;;;;;;5085036;28;20480;-79
2021/10/09 04:45:32;;;;;;;10.15;6.45;;;9.00;79.10;;;;;;5078259;28;20028;-78
2021/10/09 04:48:02;;;;;;;9.68;5.78;;;9.00;79.00;;;;;;5077276;28;20012;-79
2021/10/09 04:50:28;;;;;;;10.48;5.97;;;9.00;78.90;;;;;;5092731;28;20061;-78
2021/10/09 04:52:54;;;;;;;10.95;6.25;;;9.00;79.00;;;;;;5086073;28;20024;-79
2021/10/09 04:55:20;;;;;;;10.02;5.85;;;8.90;79.00;;;;;;5097892;28;20089;-78
2021/10/09 04:57:45;;;;;;;9.20;5.53;;;8.90;79.50;;;;;;5092428;28;20031;-78
2021/10/09 05:00:12;;;;;;;9.43;6.00;;;8.90;79.10;;;;;;5083660;28;20062;-78
2021/10/09 05:02:37;;;;;;;10.48;5.88;;;8.90;79.00;;;;;;5079510;28;20405;-78
2021/10/09 05:05:03;;;;;;;9.60;5.53;;;8.80;78.60;;;;;;5082548;28;20035;-78
2021/10/09 05:07:29;;;;;;;10.93;6.80;;;8.80;78.60;;;;;;5077471;28;20017;-79
2021/10/09 05:09:55;;;;;;;11.23;6.80;;;8.80;79.50;;;;;;5081119;28;20100;-76
2021/10/09 05:12:21;;;;;;;12.15;6.72;;;8.80;79.70;;;;;;5086392;28;20016;-77
2021/10/09 05:14:47;;;;;;;10.48;5.93;;;8.80;79.70;;;;;;5088214;28;20089;-78
2021/10/09 05:17:13;;;;;;;13.23;6.97;;;8.80;79.70;;;;;;5088785;28;20027;-78
2021/10/09 05:19:38;;;;;;;11.02;7.60;;;8.80;80.70;;;;;;5082969;28;20028;-78
2021/10/09 05:22:04;;;;;;;9.90;6.38;;;8.80;80.90;;;;;;5089711;28;20023;-78
2021/10/09 05:24:30;;;;;;;10.25;7.32;;;8.80;81.20;;;;;;5088680;28;20380;-78
2021/10/09 05:26:57;;;;;;;13.38;6.68;;;8.80;80.70;;;;;;5080328;28;20033;-78
2021/10/09 05:29:24;;;;;;;11.68;7.18;;;8.70;80.70;;;;;;5086189;28;20025;-80
2021/10/09 05:31:52;;;;;;;12.95;7.70;;;8.80;82.30;;;;;;5084177;28;20017;-79
2021/10/09 05:34:18;;;;;;;11.77;6.55;;;8.80;82.90;;;;;;5093186;28;20491;-77
2021/10/09 05:36:45;;;;;;;10.50;6.82;;;8.70;82.50;;;;;;5085623;28;20075;-78
2021/10/09 05:39:11;;;;;;;10.80;6.25;;;8.70;81.50;;;;;;5091058;28;20025;-79
2021/10/09 05:41:36;;;;;;;9.73;6.20;;;8.70;80.90;;;;;;5077120;28;20028;-79
2021/10/09 05:44:03;;;;;;;10.38;6.15;;;8.70;80.40;;;;;;5076658;28;20025;-79
2021/10/09 05:46:29;;;;;;;11.80;6.75;;;8.70;81.20;;;;;;5086257;28;20027;-79
2021/10/09 05:48:56;;;;;;;10.90;5.97;;;8.60;80.70;;;;;;5082435;28;20017;-79
2021/10/09 05:51:30;;;;;;;10.57;6.38;;;8.60;79.90;;;;;;5077248;28;20032;-80
2021/10/09 06:02:14;;;;;;;10.93;6.32;;;8.50;80.10;;;;;;5092383;28;20024;-79
2021/10/09 07:01:02;;;;;;;11.00;6.65;;;8.50;79.10;;;;;;5096060;28;20544;-79
2021/10/09 07:03:28;;;;;;;9.63;6.15;;;8.50;79.20;;;;;;5085423;28;20037;-79
2021/10/09 07:05:54;;;;;;;10.73;6.07;;;8.50;79.20;;;;;;5081001;28;20025;-79
2021/10/09 07:08:21;;;;;;;10.57;7.00;;;8.50;79.20;;;;;;5085262;28;20027;-79
2021/10/09 07:10:49;;;;;;;13.02;7.30;;;8.60;79.70;;;;;;5092611;28;20390;-79
2021/10/09 07:13:15;;;;;;;10.63;6.97;;;8.60;81.00;;;;;;5085338;28;20024;-79
2021/10/09 07:15:41;;;;;;;13.00;7.65;;;8.60;80.40;;;;;;5087056;28;20558;-79
2021/10/09 07:18:10;;;;;;;15.15;8.32;;;8.70;81.00;;;;;;5092562;28;20025;-79
2021/10/09 07:20:37;;;;;;;13.90;8.13;;;8.70;82.00;;;;;;5091103;28;20390;-79
2021/10/09 07:23:05;;;;;;;14.25;8.15;;;8.70;82.90;;;;;;5090479;28;20077;-79
2021/10/09 07:25:32;;;;;;;14.27;8.50;;;8.80;83.60;;;;;;5080080;28;20020;-79
2021/10/09 07:27:58;;;;;;;12.60;8.30;;;8.80;84.10;;;;;;5092092;28;20470;-79
2021/10/09 07:30:23;;;;;;;11.50;7.80;;;8.90;82.70;;;;;;5091911;28;20055;-79
2021/10/09 07:32:49;;;;;;;13.43;8.13;;;8.90;81.60;;;;;;5089192;28;20027;-79
2021/10/09 07:35:16;;;;;;;15.05;8.48;;;8.90;82.00;;;;;;5091766;28;20044;-79
2021/10/09 07:37:42;;;;;;;12.65;8.68;;;9.00;81.90;;;;;;5089112;28;20035;-78
2021/10/09 07:40:09;;;;;;;15.50;9.18;;;9.00;82.70;;;;;;5092388;28;20028;-78
2021/10/09 07:42:34;;;;;;;15.98;9.35;;;9.10;83.60;;;;;;5078976;28;20024;-78
2021/10/09 07:45:00;;;;;;;17.35;10.93;;;9.20;83.50;;;;;;5088768;28;20019;-79
2021/10/09 07:47:26;;;;;;;13.35;8.85;;;9.20;85.60;;;;;;5091095;28;20063;-79
2021/10/09 07:49:52;;;;;;;14.35;9.30;;;9.30;85.90;;;;;;5090113;28;20016;-78
2021/10/09 07:52:18;;;;;;;11.88;9.05;;;9.30;85.30;;;;;;5078481;28;20020;-79
2021/10/09 07:54:43;;;;;;;15.40;10.07;;;9.40;84.00;;;;;;5088367;28;20024;-79
2021/10/09 07:57:09;;;;;;;16.83;10.80;;;9.40;86.40;;;;;;5080820;28;20032;-79
2021/10/09 07:59:36;;;;;;;13.10;8.80;;;9.50;86.20;;;;;;5094124;28;20024;-79
2021/10/09 08:02:04;;;;;;;18.73;11.18;;;9.50;84.90;;;;;;5087532;28;20043;-78
2021/10/09 08:04:30;;;;;;;16.52;11.30;;;9.60;87.50;;;;;;5092261;28;20013;-78
2021/10/09 08:06:57;;;;;;;21.95;13.20;;;9.70;88.80;;;;;;5094434;28;20095;-78
2021/10/09 08:09:25;;;;;;;18.60;12.50;;;9.80;89.90;;;;;;5084388;28;20039;-78
2021/10/09 08:11:52;;;;;;;21.38;13.35;;;9.80;89.40;;;;;;5091916;28;20024;-78
2021/10/09 08:14:18;;;;;;;18.98;12.90;;;10.00;90.70;;;;;;5082403;28;20035;-78
2021/10/09 08:16:43;;;;;;;21.50;12.80;;;10.00;90.90;;;;;;5088734;28;20390;-78
2021/10/09 08:19:09;;;;;;;23.95;13.02;;;10.10;91.40;;;;;;5078980;28;20107;-78
2021/10/09 08:21:40;;;;;;;16.95;10.68;;;10.30;91.90;;;;;;5090444;28;20491;-78
2021/10/09 08:40:16;;;;;;;32.40;20.58;;;10.80;91.30;;;;;;5083632;28;20039;-79
2021/10/09 08:42:42;;;;;;;25.95;17.85;;;10.90;91.00;;;;;;5087215;28;20106;-78
2021/10/09 08:45:10;;;;;;;25.45;18.33;;;10.90;90.60;;;;;;5087315;28;20101;-78
2021/10/09 08:47:37;;;;;;;20.70;14.95;;;11.00;90.90;;;;;;5078009;28;20025;-78
2021/10/09 08:50:10;;;;;;;27.48;17.65;;;11.10;90.60;;;;;;5091384;28;20617;-78
2021/10/09 08:52:37;;;;;;;22.92;14.93;;;11.30;91.00;;;;;;5087723;28;20024;-78
2021/10/09 08:55:23;;;;;;;21.10;14.63;;;11.60;91.20;;;;;;5079755;28;20029;-78
2021/10/09 08:57:51;;;;;;;22.20;15.27;;;12.20;91.30;;;;;;5085397;28;20399;-78
2021/10/09 09:00:23;;;;;;;21.60;14.13;;;12.80;91.20;;;;;;5082034;28;20028;-78
2021/10/09 09:03:10;;;;;;;21.42;12.98;;;13.70;90.70;;;;;;5081765;28;20028;-79
2021/10/09 09:06:16;;;;;;;18.60;12.65;;;14.70;89.70;;;;;;5090061;28;20567;-79
2021/10/09 09:33:33;;;;;;;14.25;9.30;;;20.00;75.10;;;;;;5084297;28;20036;-79
2021/10/09 09:41:21;;;;;;;17.35;9.70;;;21.30;70.60;;;;;;5085212;28;20032;-79
2021/10/09 09:43:46;;;;;;;;;;;21.20;73.40;;;;;;5086290;28;20031;-76
2021/10/09 09:46:18;;;;;;;13.57;9.25;;;21.20;75.00;;;;;;5085207;28;19909;-76
2021/10/09 09:48:46;;;;;;;32.30;19.85;;;21.40;75.60;;;;;;5083170;28;20048;-78
2021/10/09 09:51:13;;;;;;;19.35;12.85;;;21.70;75.60;;;;;;5083886;28;20037;-75
2021/10/09 09:53:40;;;;;;;16.45;11.43;;;22.10;75.60;;;;;;5088324;28;20024;-75
2021/10/09 09:56:12;;;;;;;18.15;11.40;;;22.50;74.90;;;;;;5078159;28;20036;-82
2021/10/09 09:58:40;;;;;;;16.17;10.40;;;23.00;72.50;;;;;;5084381;28;20021;-76
2021/10/09 10:01:11;;;;;;;15.18;10.48;;;23.50;71.10;;;;;;5087714;28;20378;-75
2021/10/09 10:03:40;;;;;;;18.80;11.63;;;23.80;71.00;;;;;;5084209;28;20025;-74
2021/10/09 10:06:06;;;;;;;20.20;13.65;;;24.30;70.50;;;;;;5085799;28;20030;-73
2021/10/09 10:08:32;;;;;;;18.27;11.50;;;24.70;69.50;;;;;;5089111;28;20052;-73
2021/10/09 10:11:01;;;;;;;15.98;11.23;;;25.10;68.40;;;;;;5075623;28;20025;-73
2021/10/09 10:13:30;;;;;;;14.82;9.95;;;25.40;68.20;;;;;;5076214;28;20032;-73
2021/10/09 10:15:56;;;;;;;17.73;11.18;;;25.70;67.70;;;;;;5080173;28;20442;-73
2021/10/09 10:18:44;;;;;;;19.15;12.05;;;26.20;65.10;;;;;;5096580;28;20032;-73
2021/10/09 10:21:32;;;;;;;18.15;10.98;;;26.70;60.60;;;;;;5080912;28;20068;-73
2021/10/09 10:23:58;;;;;;;19.38;13.30;;;26.80;58.90;;;;;;5080681;28;20025;-72
2021/10/09 10:26:28;;;;;;;17.45;12.80;;;26.80;59.70;;;;;;5080864;28;20082;-73
2021/10/09 10:28:53;;;;;;;27.42;18.45;;;26.80;59.50;;;;;;5080988;28;20029;-73
2021/10/09 10:31:20;;;;;;;20.42;14.93;;;27.10;57.60;;;;;;5080776;28;20031;-73
2021/10/09 10:33:57;;;;;;;18.02;11.35;;;27.00;60.30;;;;;;5098411;28;20024;-73
2021/10/09 10:36:36;;;;;;;17.30;11.50;;;27.00;60.80;;;;;;5099689;28;20387;-73
2021/10/09 10:39:03;;;;;;;17.52;9.32;;;27.30;60.40;;;;;;5083551;28;20174;-73
2021/10/09 10:41:42;;;;;;;16.35;10.60;;;27.40;61.30;;;;;;5089763;28;20054;-73
2021/10/09 10:44:10;;;;;;;14.88;8.60;;;27.80;56.00;;;;;;5081528;28;20031;-73
2021/10/09 10:49:16;;;;;;;12.27;8.57;;;27.90;60.10;;;;;;5081024;28;20025;-73
2021/10/09 10:57:04;;;;;;;12.93;7.63;;;28.40;59.10;;;;;;5080630;28;20494;-73
2021/10/09 10:59:45;;;;;;;8.45;6.25;;;28.50;57.50;;;;;;5080307;28;20060;-74
2021/10/09 11:02:28;;;;;;;9.68;6.90;;;28.60;57.90;;;;;;5079114;28;20387;-73
2021/10/09 11:05:01;;;;;;;11.40;7.10;;;28.70;57.00;;;;;;5090718;28;20073;-73
2021/10/09 11:07:30;;;;;;;12.10;7.15;;;28.80;56.50;;;;;;5082077;28;20017;-74
2021/10/09 11:10:07;;;;;;;12.18;6.60;;;28.90;56.30;;;;;;5080100;28;20021;-74
2021/10/09 11:12:35;;;;;;;10.90;7.03;;;28.90;56.20;;;;;;5087163;28;20026;-73
2021/10/09 11:15:23;;;;;;;13.30;7.10;;;29.00;55.90;;;;;;5086366;28;20021;-74
2021/10/09 11:17:56;;;;;;;9.60;6.15;;;28.90;55.20;;;;;;5096788;28;20024;-74
2021/10/09 11:20:35;;;;;;;10.23;5.82;;;29.00;55.20;;;;;;5081759;28;20055;-74
2021/10/09 11:23:09;;;;;;;12.23;6.72;;;29.10;55.30;;;;;;5079916;28;20028;-74
2021/10/09 11:25:46;;;;;;;9.32;5.70;;;29.10;53.70;;;;;;5087580;28;20016;-74
2021/10/09 11:28:20;;;;;;;10.57;6.20;;;29.20;54.00;;;;;;5082849;28;20020;-74
2021/10/09 11:30:46;;;;;;;12.18;6.78;;;29.20;54.10;;;;;;5079921;28;20025;-74
2021/10/09 11:33:12;;;;;;;9.70;6.60;;;29.20;53.90;;;;;;5091209;28;20020;-74
2021/10/09 11:35:39;;;;;;;9.60;5.93;;;29.20;54.30;;;;;;5099940;28;20052;-74
2021/10/09 11:38:21;;;;;;;11.32;6.28;;;29.20;53.60;;;;;;5080390;28;20503;-74
2021/10/09 11:56:24;;;;;;;12.13;7.55;;;28.50;54.00;;;;;;5085093;28;20100;-74
2021/10/09 11:59:01;;;;;;;11.82;7.60;;;28.30;53.80;;;;;;5079241;28;20082;-74
2021/10/09 12:01:36;;;;;;;14.98;6.90;;;28.20;54.10;;;;;;5079308;28;20028;-74
2021/10/09 12:04:16;;;;;;;12.50;7.15;;;28.10;54.40;;;;;;5079292;28;20029;-74
2021/10/09 12:06:48;;;;;;;12.18;7.30;;;28.00;54.30;;;;;;5092836;28;20024;-74
2021/10/09 12:09:15;;;;;;;11.52;6.82;;;27.90;55.00;;;;;;5078831;28;20029;-75
2021/10/09 12:11:42;;;;;;;10.30;6.28;;;27.80;53.90;;;;;;5079110;28;20020;-74
2021/10/09 12:14:10;;;;;;;8.75;6.47;;;27.70;53.40;;;;;;5078804;28;20055;-74
2021/10/09 12:16:46;;;;;;;12.15;7.55;;;27.60;53.70;;;;;;5085370;28;20016;-74
2021/10/09 12:19:25;;;;;;;12.88;7.68;;;27.60;53.30;;;;;;5096097;28;20064;-74
2021/10/09 12:21:51;;;;;;;11.32;6.65;;;27.60;53.20;;;;;;5078883;28;20032;-74
2021/10/09 12:24:22;;;;;;;10.90;6.75;;;27.70;54.30;;;;;;5078207;28;20028;-74
2021/10/09 12:27:05;;;;;;;13.27;8.07;;;27.70;53.10;;;;;;5077424;28;20037;-75
2021/10/09 12:29:35;;;;;;;17.00;8.35;;;27.80;53.70;;;;;;5086779;28;20020;-74
2021/10/09 12:32:15;;;;;;;11.65;7.32;;;27.80;52.90;;;;;;5085072;28;20440;-74
2021/10/09 12:34:42;;;;;;;12.45;7.93;;;27.80;53.80;;;;;;5092928;28;20040;-75
2021/10/09 12:37:27;;;;;;;15.30;7.80;;;27.90;52.70;;;;;;5094537;28;20110;-74
2021/10/09 12:40:10;;;;;;;13.48;8.10;;;27.80;53.20;;;;;;5080787;28;20020;-75
2021/10/09 12:42:36;;;;;;;12.98;7.57;;;27.80;52.70;;;;;;5090805;28;20420;-74
2021/10/09 12:45:05;;;;;;;10.30;7.00;;;27.70;52.90;;;;;;5083942;28;20044;-74
2021/10/09 12:47:31;;;;;;;12.13;7.60;;;27.60;52.80;;;;;;5078467;28;20529;-74
2021/10/09 12:49:57;;;;;;;12.07;7.65;;;27.50;53.70;;;;;;5091853;28;20024;-74
2021/10/09 12:52:22;;;;;;;12.07;7.82;;;27.30;53.70;;;;;;5077832;28;20357;-74
2021/10/09 12:54:48;;;;;;;12.52;7.50;;;27.20;54.00;;;;;;5077741;28;20031;-75
2021/10/09 12:57:14;;;;;;;12.95;6.80;;;27.00;54.80;;;;;;5078027;28;20134;-75
2021/10/09 12:59:40;;;;;;;10.77;5.93;;;26.90;54.20;;;;;;5076529;28;20017;-75
2021/10/09 13:02:06;;;;;;;9.48;5.38;;;26.80;54.10;;;;;;5077976;28;20418;-79
2021/10/09 13:04:33;;;;;;;12.57;6.75;;;26.70;53.90;;;;;;5078239;28;20029;-75
2021/10/09 13:06:59;;;;;;;9.43;6.22;;;26.60;54.60;;;;;;5089605;28;20077;-75
2021/10/09 13:09:26;;;;;;;10.98;6.00;;;26.60;54.90;;;;;;5077558;28;20028;-76
2021/10/09 13:12:03;;;;;;;9.95;6.13;;;26.50;55.00;;;;;;5084650;28;20106;-75
2021/10/09 13:14:29;;;;;;;10.73;5.93;;;26.40;54.80;;;;;;5090014;28;20493;-75
2021/10/09 13:16:55;;;;;;;11.82;6.05;;;26.30;54.70;;;;;;5088248;28;20009;-75
2021/10/09 13:19:20;;;;;;;12.75;6.25;;;26.10;53.70;;;;;;5090713;28;20035;-75
2021/10/09 13:21:46;;;;;;;14.55;6.43;;;25.80;52.90;;;;;;5097929;28;20060;-75
2021/10/09 13:24:12;;;;;;;9.70;5.50;;;25.70;53.80;;;;;;5097219;28;20055;-75
2021/10/09 13:26:38;;;;;;;11.23;6.55;;;25.60;54.80;;;;;;5097484;28;20032;-75
2021/10/09 13:29:05;;;;;;;10.85;6.00;;;25.40;54.40;;;;;;5094854;28;20042;-75
2021/10/09 13:31:32;;;;;;;14.90;7.78;;;25.30;54.40;;;;;;5097665;28;20055;-75
2021/10/09 13:33:58;;;;;;;14.02;7.93;;;25.10;55.10;;;;;;5097583;28;21234;-75
2021/10/09 13:36:25;;;;;;;14.40;7.75;;;25.00;55.20;;;;;;5094998;28;20044;-75
2021/10/09 13:38:51;;;;;;;13.73;6.72;;;24.90;55.30;;;;;;5095851;28;20364;-75
2021/10/09 13:41:17;;;;;;;12.60;7.50;;;24.80;56.30;;;;;;5087335;28;20028;-75
2021/10/09 13:43:44;;;;;;;16.30;8.20;;;24.70;55.80;;;;;;5097567;28;20081;-75
2021/10/09 13:46:13;;;;;;;14.90;7.38;;;24.60;56.40;;;;;;5094598;28;20629;-75
2021/10/09 13:48:41;;;;;;;26.38;9.73;;;24.60;56.90;;;;;;5092320;28;20505;-75
2021/10/09 13:51:12;;;;;;;15.73;9.30;;;24.50;56.90;;;;;;5094493;28;20052;-75
2021/10/09 13:53:42;;;;;;;13.50;8.05;;;24.40;57.50;;;;;;5097118;28;20040;-75
2021/10/09 13:56:08;;;;;;;14.80;8.45;;;24.30;57.60;;;;;;5097416;28;20024;-75
2021/10/09 13:58:34;;;;;;;18.95;9.77;;;24.20;57.50;;;;;;5097044;28;20071;-75
2021/10/09 14:01:00;;;;;;;12.77;6.60;;;24.20;57.10;;;;;;5097502;28;20028;-75
2021/10/09 14:03:29;;;;;;;15.00;7.93;;;24.10;57.90;;;;;;5083282;28;20078;-75
2021/10/09 14:05:55;;;;;;;15.95;9.18;;;24.00;57.60;;;;;;5088839;28;20027;-75
2021/10/09 14:08:21;;;;;;;18.77;9.85;;;23.90;58.10;;;;;;5091869;28;20028;-76
2021/10/09 14:10:47;;;;;;;16.73;8.90;;;23.80;57.70;;;;;;5084989;28;20078;-75
2021/10/09 14:13:13;;;;;;;16.17;9.32;;;23.70;58.20;;;;;;5091079;28;20508;-75
2021/10/09 14:15:39;;;;;;;14.65;7.68;;;23.60;58.30;;;;;;5097289;28;20047;-76
2021/10/09 14:18:06;;;;;;;16.27;8.82;;;23.50;58.90;;;;;;5091046;28;20020;-75
2021/10/09 14:20:32;;;;;;;12.77;8.13;;;23.60;59.00;;;;;;5097544;28;20081;-75
2021/10/09 14:23:01;;;;;;;13.95;7.78;;;23.50;59.10;;;;;;5096835;28;20031;-75
2021/10/09 14:25:33;;;;;;;14.20;7.82;;;23.40;58.80;;;;;;5096970;28;20032;-76
2021/10/09 14:28:03;;;;;;;12.52;7.07;;;23.30;58.20;;;;;;5095820;28;20028;-76
2021/10/09 14:30:30;;;;;;;12.30;6.88;;;23.20;58.00;;;;;;5091200;28;20394;-76
2021/10/09 14:32:56;;;;;;;11.30;7.22;;;23.00;58.40;;;;;;5095087;28;20021;-76
2021/10/09 14:35:23;;;;;;;12.02;6.60;;;22.90;58.60;;;;;;5084458;28;20044;-75
2021/10/09 14:37:49;;;;;;;15.00;6.82;;;22.80;58.40;;;;;;5079024;28;20108;-75
2021/10/09 14:40:16;;;;;;;15.95;6.13;;;22.70;58.10;;;;;;5087122;28;20021;-75
2021/10/09 14:42:46;;;;;;;11.40;5.40;;;22.60;58.00;;;;;;5078094;28;20029;-75
2021/10/09 14:45:16;;;;;;;14.88;7.03;;;22.50;58.50;;;;;;5084434;28;20029;-74
2021/10/09 14:47:52;;;;;;;11.65;5.88;;;22.40;58.60;;;;;;5084025;28;20491;-74
2021/10/09 14:50:27;;;;;;;10.65;6.00;;;22.30;59.10;;;;;;5077927;28;20095;-74
2021/10/09 15:19:36;;;;;;;7.13;4.35;;;21.60;58.40;;;;;;5086810;28;20028;-75
2021/10/09 15:22:02;;;;;;;8.27;4.72;;;21.60;58.40;;;;;;5100239;28;20020;-75
2021/10/09 15:24:28;;;;;;;9.90;5.40;;;21.50;58.50;;;;;;5083710;28;20020;-75
2021/10/09 15:26:54;;;;;;;8.25;4.68;;;21.40;58.60;;;;;;5079811;28;20506;-75
2021/10/09 15:29:20;;;;;;;10.45;5.15;;;21.30;58.90;;;;;;5079854;28;20082;-75
2021/10/09 15:31:46;;;;;;;10.27;4.95;;;21.30;59.30;;;;;;5080662;28;20059;-74
2021/10/09 15:34:11;;;;;;;7.55;4.07;;;21.20;59.10;;;;;;5097278;28;20558;-75
2021/10/09 15:36:37;;;;;;;8.85;4.55;;;21.20;59.20;;;;;;5079546;28;20162;-74
2021/10/09 15:39:04;;;;;;;9.10;4.35;;;21.10;58.90;;;;;;5079318;28;20085;-75
2021/10/09 15:41:30;;;;;;;7.78;3.90;;;21.10;58.60;;;;;;5080471;28;20024;-76